sensor_id;sensor_type;location;lat;lon;timestamp;P1;durP1;ratioP1;P2;durP2;ratioP2
29788;SDS011;64899;42.660;23.268;2022-12-18T00:01:56;9.70;;;6.65;;
29788;SDS011;64899;42.660;23.268;2022-12-18T00:04:24;9.40;;;6.75;;
29788;SDS011;64899;42.660;23.268;2022-12-18T00:06:50;7.78;;;6.18;;
29788;SDS011;64899;42.660;23.268;2022-12-18T00:09:16;9.13;;;7.00;;
29788;SDS011;64899;42.660;23.268;2022-12-18T00:11:41;11.02;;;6.32;;
29788;SDS011;64899;42.660;23.268;2022-12-18T00:14:06;9.13;;;6.97;;
29788;SDS011;64899;42.660;23.268;2022-12-18T00:16:33;10.30;;;6.90;;
29788;SDS011;64899;42.660;23.268;2022-12-18T00:19:00;8.98;;;7.40;;
29788;SDS011;64899;42.660;23.268;2022-12-18T00:21:26;9.15;;;7.13;;
29788;SDS011;64899;42.660;23.268;2022-12-18T00:23:53;9.15;;;6.45;;
29788;SDS011;64899;42.660;23.268;2022-12-18T00:26:19;9.25;;;6.85;;
29788;SDS011;64899;42.660;23.268;2022-12-18T00:28:46;8.82;;;6.32;;
29788;SDS011;64899;42.660;23.268;2022-12-18T00:31:13;9.55;;;6.97;;
29788;SDS011;64899;42.660;23.268;2022-12-18T00:33:40;10.30;;;7.07;;
29788;SDS011;64899;42.660;23.268;2022-12-18T00:36:13;9.15;;;6.78;;
29788;SDS011;64899;42.660;23.268;2022-12-18T00:38:40;9.63;;;7.70;;
29788;SDS011;64899;42.660;23.268;2022-12-18T00:41:07;9.57;;;6.90;;
29788;SDS011;64899;42.660;23.268;2022-12-18T00:43:32;8.68;;;6.85;;
29788;SDS011;64899;42.660;23.268;2022-12-18T00:45:58;10.15;;;6.72;;
29788;SDS011;64899;42.660;23.268;2022-12-18T00:48:23;9.82;;;6.93;;
29788;SDS011;64899;42.660;23.268;2022-12-18T00:50:49;10.02;;;7.20;;
29788;SDS011;64899;42.660;23.268;2022-12-18T00:53:15;8.70;;;6.68;;
29788;SDS011;64899;42.660;23.268;2022-12-18T00:55:40;9.25;;;6.22;;
29788;SDS011;64899;42.660;23.268;2022-12-18T00:58:06;11.65;;;7.05;;
29788;SDS011;64899;42.660;23.268;2022-12-18T01:00:32;8.90;;;6.78;;
29788;SDS011;64899;42.660;23.268;2022-12-18T01:02:58;9.25;;;6.85;;
29788;SDS011;64899;42.660;23.268;2022-12-18T01:05:23;9.43;;;6.78;;
29788;SDS011;64899;42.660;23.268;2022-12-18T01:07:49;10.00;;;7.13;;
29788;SDS011;64899;42.660;23.268;2022-12-18T01:10:14;10.80;;;6.78;;
29788;SDS011;64899;42.660;23.268;2022-12-18T01:12:40;11.68;;;7.65;;
29788;SDS011;64899;42.660;23.268;2022-12-18T01:15:06;9.15;;;7.22;;
29788;SDS011;64899;42.660;23.268;2022-12-18T01:17:32;11.45;;;7.90;;
29788;SDS011;64899;42.660;23.268;2022-12-18T01:19:57;12.52;;;8.07;;
29788;SDS011;64899;42.660;23.268;2022-12-18T01:22:23;11.57;;;7.88;;
29788;SDS011;64899;42.660;23.268;2022-12-18T01:24:48;10.68;;;7.93;;
29788;SDS011;64899;42.660;23.268;2022-12-18T01:27:14;11.50;;;8.20;;
29788;SDS011;64899;42.660;23.268;2022-12-18T01:29:39;10.95;;;7.97;;
29788;SDS011;64899;42.660;23.268;2022-12-18T01:32:05;10.23;;;7.82;;
29788;SDS011;64899;42.660;23.268;2022-12-18T01:34:30;13.70;;;9.10;;
29788;SDS011;64899;42.660;23.268;2022-12-18T01:36:56;13.90;;;9.38;;
29788;SDS011;64899;42.660;23.268;2022-12-18T01:39:21;11.50;;;8.43;;
29788;SDS011;64899;42.660;23.268;2022-12-18T01:41:46;14.50;;;9.60;;
29788;SDS011;64899;42.660;23.268;2022-12-18T01:50:15;15.13;;;9.25;;
29788;SDS011;64899;42.660;23.268;2022-12-18T01:52:43;13.18;;;8.77;;
29788;SDS011;64899;42.660;23.268;2022-12-18T01:55:11;12.88;;;9.63;;
29788;SDS011;64899;42.660;23.268;2022-12-18T01:57:37;14.45;;;9.68;;
29788;SDS011;64899;42.660;23.268;2022-12-18T02:00:11;14.88;;;9.70;;
29788;SDS011;64899;42.660;23.268;2022-12-18T02:02:39;15.63;;;10.40;;
29788;SDS011;64899;42.660;23.268;2022-12-18T02:05:06;13.30;;;9.00;;
29788;SDS011;64899;42.660;23.268;2022-12-18T02:18:27;13.38;;;10.02;;
29788;SDS011;64899;42.660;23.268;2022-12-18T02:27:05;13.70;;;9.88;;
29788;SDS011;64899;42.660;23.268;2022-12-18T02:29:39;13.23;;;9.40;;
29788;SDS011;64899;42.660;23.268;2022-12-18T02:32:09;13.20;;;9.77;;
29788;SDS011;64899;42.660;23.268;2022-12-18T02:34:38;13.40;;;8.90;;
29788;SDS011;64899;42.660;23.268;2022-12-18T02:37:05;16.10;;;9.60;;
29788;SDS011;64899;42.660;23.268;2022-12-18T02:39:36;14.35;;;9.35;;
29788;SDS011;64899;42.660;23.268;2022-12-18T02:42:02;13.52;;;9.23;;
29788;SDS011;64899;42.660;23.268;2022-12-18T02:44:33;12.85;;;9.13;;
29788;SDS011;64899;42.660;23.268;2022-12-18T02:47:00;11.55;;;8.40;;
29788;SDS011;64899;42.660;23.268;2022-12-18T02:52:17;11.18;;;8.65;;
29788;SDS011;64899;42.660;23.268;2022-12-18T02:58:35;13.07;;;9.15;;
29788;SDS011;64899;42.660;23.268;2022-12-18T03:03:29;16.40;;;9.32;;
29788;SDS011;64899;42.660;23.268;2022-12-18T03:06:05;10.05;;;7.65;;
29788;SDS011;64899;42.660;23.268;2022-12-18T03:08:34;12.65;;;8.30;;
29788;SDS011;64899;42.660;23.268;2022-12-18T03:11:04;12.30;;;8.32;;
29788;SDS011;64899;42.660;23.268;2022-12-18T03:13:33;14.57;;;8.50;;
29788;SDS011;64899;42.660;23.268;2022-12-18T03:16:01;10.90;;;7.78;;
29788;SDS011;64899;42.660;23.268;2022-12-18T03:21:08;11.50;;;7.65;;
29788;SDS011;64899;42.660;23.268;2022-12-18T03:23:36;10.20;;;7.35;;
29788;SDS011;64899;42.660;23.268;2022-12-18T03:26:10;9.23;;;6.88;;
29788;SDS011;64899;42.660;23.268;2022-12-18T03:29:00;9.85;;;7.18;;
29788;SDS011;64899;42.660;23.268;2022-12-18T03:31:28;9.48;;;6.63;;
29788;SDS011;64899;42.660;23.268;2022-12-18T03:33:55;11.52;;;6.35;;
29788;SDS011;64899;42.660;23.268;2022-12-18T03:36:23;8.82;;;6.57;;
29788;SDS011;64899;42.660;23.268;2022-12-18T03:38:48;7.63;;;5.63;;
29788;SDS011;64899;42.660;23.268;2022-12-18T03:43:48;8.75;;;6.35;;
29788;SDS011;64899;42.660;23.268;2022-12-18T03:46:17;9.52;;;6.88;;
29788;SDS011;64899;42.660;23.268;2022-12-18T03:48:51;9.25;;;6.45;;
29788;SDS011;64899;42.660;23.268;2022-12-18T03:51:42;9.75;;;7.20;;
29788;SDS011;64899;42.660;23.268;2022-12-18T03:56:41;9.40;;;6.95;;
29788;SDS011;64899;42.660;23.268;2022-12-18T03:59:09;10.95;;;7.50;;
29788;SDS011;64899;42.660;23.268;2022-12-18T04:01:40;13.65;;;7.50;;
29788;SDS011;64899;42.660;23.268;2022-12-18T04:04:10;9.50;;;6.82;;
29788;SDS011;64899;42.660;23.268;2022-12-18T04:06:36;11.73;;;7.82;;
29788;SDS011;64899;42.660;23.268;2022-12-18T04:09:02;12.13;;;7.80;;
29788;SDS011;64899;42.660;23.268;2022-12-18T04:11:29;9.63;;;7.15;;
29788;SDS011;64899;42.660;23.268;2022-12-18T04:13:55;10.05;;;6.75;;
29788;SDS011;64899;42.660;23.268;2022-12-18T04:16:22;9.32;;;6.10;;
29788;SDS011;64899;42.660;23.268;2022-12-18T04:18:49;9.45;;;6.38;;
29788;SDS011;64899;42.660;23.268;2022-12-18T04:21:14;11.68;;;7.00;;
29788;SDS011;64899;42.660;23.268;2022-12-18T04:23:39;11.65;;;7.57;;
29788;SDS011;64899;42.660;23.268;2022-12-18T04:26:05;11.30;;;7.68;;
29788;SDS011;64899;42.660;23.268;2022-12-18T04:28:30;11.95;;;7.28;;
29788;SDS011;64899;42.660;23.268;2022-12-18T04:30:55;10.93;;;7.03;;
29788;SDS011;64899;42.660;23.268;2022-12-18T04:33:21;10.27;;;7.15;;
29788;SDS011;64899;42.660;23.268;2022-12-18T04:35:46;11.13;;;7.22;;
29788;SDS011;64899;42.660;23.268;2022-12-18T04:38:12;12.32;;;7.72;;
29788;SDS011;64899;42.660;23.268;2022-12-18T04:40:37;11.98;;;8.15;;
29788;SDS011;64899;42.660;23.268;2022-12-18T04:43:03;13.70;;;8.05;;
29788;SDS011;64899;42.660;23.268;2022-12-18T04:45:29;12.05;;;8.20;;
29788;SDS011;64899;42.660;23.268;2022-12-18T04:47:56;13.60;;;8.93;;
29788;SDS011;64899;42.660;23.268;2022-12-18T04:50:22;15.30;;;9.95;;
29788;SDS011;64899;42.660;23.268;2022-12-18T04:52:48;15.05;;;9.27;;
29788;SDS011;64899;42.660;23.268;2022-12-18T04:55:13;14.15;;;8.93;;
29788;SDS011;64899;42.660;23.268;2022-12-18T04:57:39;12.98;;;8.25;;
29788;SDS011;64899;42.660;23.268;2022-12-18T05:00:04;12.48;;;8.57;;
29788;SDS011;64899;42.660;23.268;2022-12-18T05:02:31;12.70;;;8.32;;
29788;SDS011;64899;42.660;23.268;2022-12-18T05:04:56;13.55;;;9.00;;
29788;SDS011;64899;42.660;23.268;2022-12-18T05:07:22;15.40;;;9.98;;
29788;SDS011;64899;42.660;23.268;2022-12-18T05:09:47;17.35;;;10.50;;
29788;SDS011;64899;42.660;23.268;2022-12-18T05:12:12;16.17;;;10.40;;
29788;SDS011;64899;42.660;23.268;2022-12-18T05:14:38;15.10;;;10.35;;
29788;SDS011;64899;42.660;23.268;2022-12-18T05:17:03;16.67;;;10.80;;
29788;SDS011;64899;42.660;23.268;2022-12-18T05:19:28;16.85;;;11.18;;
29788;SDS011;64899;42.660;23.268;2022-12-18T05:21:54;17.13;;;12.20;;
29788;SDS011;64899;42.660;23.268;2022-12-18T05:24:19;18.08;;;11.95;;
29788;SDS011;64899;42.660;23.268;2022-12-18T05:26:45;17.85;;;12.13;;
29788;SDS011;64899;42.660;23.268;2022-12-18T05:29:10;17.20;;;10.93;;
29788;SDS011;64899;42.660;23.268;2022-12-18T05:31:37;19.83;;;12.27;;
29788;SDS011;64899;42.660;23.268;2022-12-18T05:34:03;16.63;;;10.52;;
29788;SDS011;64899;42.660;23.268;2022-12-18T05:36:29;17.75;;;11.45;;
29788;SDS011;64899;42.660;23.268;2022-12-18T05:38:54;19.23;;;11.15;;
29788;SDS011;64899;42.660;23.268;2022-12-18T05:41:20;17.50;;;11.05;;
29788;SDS011;64899;42.660;23.268;2022-12-18T05:43:45;16.48;;;11.80;;
29788;SDS011;64899;42.660;23.268;2022-12-18T05:46:17;20.15;;;13.32;;
29788;SDS011;64899;42.660;23.268;2022-12-18T05:48:43;21.13;;;12.90;;
29788;SDS011;64899;42.660;23.268;2022-12-18T05:51:10;21.17;;;13.45;;
29788;SDS011;64899;42.660;23.268;2022-12-18T05:53:40;19.75;;;13.15;;
29788;SDS011;64899;42.660;23.268;2022-12-18T05:56:07;22.50;;;13.40;;
29788;SDS011;64899;42.660;23.268;2022-12-18T05:58:34;20.42;;;12.82;;
29788;SDS011;64899;42.660;23.268;2022-12-18T06:01:06;22.73;;;13.27;;
29788;SDS011;64899;42.660;23.268;2022-12-18T06:03:35;21.75;;;13.90;;
29788;SDS011;64899;42.660;23.268;2022-12-18T06:06:01;19.58;;;12.20;;
29788;SDS011;64899;42.660;23.268;2022-12-18T06:08:26;21.88;;;13.45;;
29788;SDS011;64899;42.660;23.268;2022-12-18T06:10:52;22.38;;;12.98;;
29788;SDS011;64899;42.660;23.268;2022-12-18T06:13:18;22.15;;;13.95;;
29788;SDS011;64899;42.660;23.268;2022-12-18T06:15:44;20.45;;;13.57;;
29788;SDS011;64899;42.660;23.268;2022-12-18T06:18:09;24.10;;;14.32;;
29788;SDS011;64899;42.660;23.268;2022-12-18T06:20:35;17.48;;;11.90;;
29788;SDS011;64899;42.660;23.268;2022-12-18T06:23:02;18.75;;;12.45;;
29788;SDS011;64899;42.660;23.268;2022-12-18T06:25:27;21.45;;;12.13;;
29788;SDS011;64899;42.660;23.268;2022-12-18T06:27:53;21.15;;;13.00;;
29788;SDS011;64899;42.660;23.268;2022-12-18T06:30:18;19.40;;;12.25;;
29788;SDS011;64899;42.660;23.268;2022-12-18T06:32:44;20.15;;;12.90;;
29788;SDS011;64899;42.660;23.268;2022-12-18T06:35:09;20.83;;;12.93;;
29788;SDS011;64899;42.660;23.268;2022-12-18T06:37:35;18.80;;;12.20;;
29788;SDS011;64899;42.660;23.268;2022-12-18T06:40:00;19.90;;;12.15;;
29788;SDS011;64899;42.660;23.268;2022-12-18T06:42:26;23.35;;;13.25;;
29788;SDS011;64899;42.660;23.268;2022-12-18T06:44:51;19.95;;;11.82;;
29788;SDS011;64899;42.660;23.268;2022-12-18T06:47:17;17.42;;;11.27;;
29788;SDS011;64899;42.660;23.268;2022-12-18T06:49:43;19.23;;;11.45;;
29788;SDS011;64899;42.660;23.268;2022-12-18T06:52:08;17.30;;;11.25;;
29788;SDS011;64899;42.660;23.268;2022-12-18T06:54:34;23.42;;;13.25;;
29788;SDS011;64899;42.660;23.268;2022-12-18T06:56:59;19.73;;;12.23;;
29788;SDS011;64899;42.660;23.268;2022-12-18T06:59:25;20.40;;;12.73;;
29788;SDS011;64899;42.660;23.268;2022-12-18T07:01:50;21.60;;;13.10;;
29788;SDS011;64899;42.660;23.268;2022-12-18T07:04:16;20.17;;;12.80;;
29788;SDS011;64899;42.660;23.268;2022-12-18T07:06:41;22.70;;;14.52;;
29788;SDS011;64899;42.660;23.268;2022-12-18T07:09:06;21.88;;;13.30;;
29788;SDS011;64899;42.660;23.268;2022-12-18T07:11:32;21.75;;;13.77;;
29788;SDS011;64899;42.660;23.268;2022-12-18T07:13:58;21.65;;;12.60;;
29788;SDS011;64899;42.660;23.268;2022-12-18T07:16:23;22.15;;;13.32;;
29788;SDS011;64899;42.660;23.268;2022-12-18T07:18:49;21.17;;;13.20;;
29788;SDS011;64899;42.660;23.268;2022-12-18T07:21:15;22.05;;;13.55;;
29788;SDS011;64899;42.660;23.268;2022-12-18T07:23:42;22.20;;;13.68;;
29788;SDS011;64899;42.660;23.268;2022-12-18T07:26:09;19.80;;;12.63;;
29788;SDS011;64899;42.660;23.268;2022-12-18T07:28:37;25.35;;;14.82;;
29788;SDS011;64899;42.660;23.268;2022-12-18T07:31:08;23.58;;;14.70;;
29788;SDS011;64899;42.660;23.268;2022-12-18T07:33:35;24.02;;;13.10;;
29788;SDS011;64899;42.660;23.268;2022-12-18T07:36:01;23.45;;;13.80;;
29788;SDS011;64899;42.660;23.268;2022-12-18T07:38:28;23.25;;;13.70;;
29788;SDS011;64899;42.660;23.268;2022-12-18T07:40:54;24.25;;;14.10;;
29788;SDS011;64899;42.660;23.268;2022-12-18T07:43:19;23.48;;;14.80;;
29788;SDS011;64899;42.660;23.268;2022-12-18T07:45:45;24.80;;;15.43;;
29788;SDS011;64899;42.660;23.268;2022-12-18T07:48:10;22.98;;;14.88;;
29788;SDS011;64899;42.660;23.268;2022-12-18T07:50:36;21.27;;;13.40;;
29788;SDS011;64899;42.660;23.268;2022-12-18T07:53:02;24.83;;;14.63;;
29788;SDS011;64899;42.660;23.268;2022-12-18T07:55:30;26.58;;;15.38;;
29788;SDS011;64899;42.660;23.268;2022-12-18T07:57:56;24.10;;;15.68;;
29788;SDS011;64899;42.660;23.268;2022-12-18T08:00:21;29.98;;;16.33;;
29788;SDS011;64899;42.660;23.268;2022-12-18T08:02:46;27.80;;;16.80;;
29788;SDS011;64899;42.660;23.268;2022-12-18T08:05:12;34.40;;;20.45;;
29788;SDS011;64899;42.660;23.268;2022-12-18T08:07:38;38.15;;;19.85;;
29788;SDS011;64899;42.660;23.268;2022-12-18T08:10:04;28.30;;;16.77;;
29788;SDS011;64899;42.660;23.268;2022-12-18T08:12:29;28.52;;;16.45;;
29788;SDS011;64899;42.660;23.268;2022-12-18T08:14:55;33.97;;;18.88;;
29788;SDS011;64899;42.660;23.268;2022-12-18T08:17:20;37.33;;;20.77;;
29788;SDS011;64899;42.660;23.268;2022-12-18T08:19:45;35.60;;;19.27;;
29788;SDS011;64899;42.660;23.268;2022-12-18T08:22:11;30.58;;;18.50;;
29788;SDS011;64899;42.660;23.268;2022-12-18T08:24:36;30.92;;;18.77;;
29788;SDS011;64899;42.660;23.268;2022-12-18T08:27:02;30.75;;;17.90;;
29788;SDS011;64899;42.660;23.268;2022-12-18T08:29:27;28.00;;;17.00;;
29788;SDS011;64899;42.660;23.268;2022-12-18T08:31:53;30.55;;;19.00;;
29788;SDS011;64899;42.660;23.268;2022-12-18T08:34:18;31.15;;;17.80;;
29788;SDS011;64899;42.660;23.268;2022-12-18T08:36:43;29.60;;;18.63;;
29788;SDS011;64899;42.660;23.268;2022-12-18T08:39:09;34.72;;;19.92;;
29788;SDS011;64899;42.660;23.268;2022-12-18T08:41:34;31.63;;;18.48;;
29788;SDS011;64899;42.660;23.268;2022-12-18T08:43:59;32.83;;;19.33;;
29788;SDS011;64899;42.660;23.268;2022-12-18T08:46:43;35.05;;;20.58;;
29788;SDS011;64899;42.660;23.268;2022-12-18T08:49:10;32.20;;;19.60;;
29788;SDS011;64899;42.660;23.268;2022-12-18T08:51:36;36.55;;;21.20;;
29788;SDS011;64899;42.660;23.268;2022-12-18T08:54:02;37.30;;;20.52;;
29788;SDS011;64899;42.660;23.268;2022-12-18T08:56:29;36.33;;;20.77;;
29788;SDS011;64899;42.660;23.268;2022-12-18T08:58:55;34.28;;;20.23;;
29788;SDS011;64899;42.660;23.268;2022-12-18T09:01:21;33.47;;;18.95;;
29788;SDS011;64899;42.660;23.268;2022-12-18T09:03:47;33.85;;;19.92;;
29788;SDS011;64899;42.660;23.268;2022-12-18T09:06:14;35.85;;;20.35;;
29788;SDS011;64899;42.660;23.268;2022-12-18T09:08:40;38.53;;;20.65;;
29788;SDS011;64899;42.660;23.268;2022-12-18T09:11:10;37.17;;;21.70;;
29788;SDS011;64899;42.660;23.268;2022-12-18T09:13:38;38.38;;;20.83;;
29788;SDS011;64899;42.660;23.268;2022-12-18T09:16:03;34.97;;;20.75;;
29788;SDS011;64899;42.660;23.268;2022-12-18T09:18:29;33.08;;;20.33;;
29788;SDS011;64899;42.660;23.268;2022-12-18T09:20:54;33.58;;;19.05;;
29788;SDS011;64899;42.660;23.268;2022-12-18T09:23:21;32.55;;;18.88;;
29788;SDS011;64899;42.660;23.268;2022-12-18T09:25:47;34.30;;;19.58;;
29788;SDS011;64899;42.660;23.268;2022-12-18T09:28:14;34.83;;;19.63;;
29788;SDS011;64899;42.660;23.268;2022-12-18T09:30:42;35.70;;;19.40;;
29788;SDS011;64899;42.660;23.268;2022-12-18T09:33:11;35.00;;;19.98;;
29788;SDS011;64899;42.660;23.268;2022-12-18T09:35:37;32.78;;;18.95;;
29788;SDS011;64899;42.660;23.268;2022-12-18T09:38:03;33.35;;;19.63;;
29788;SDS011;64899;42.660;23.268;2022-12-18T09:40:31;32.25;;;19.15;;
29788;SDS011;64899;42.660;23.268;2022-12-18T09:43:00;39.03;;;20.88;;
29788;SDS011;64899;42.660;23.268;2022-12-18T09:45:30;43.47;;;23.02;;
29788;SDS011;64899;42.660;23.268;2022-12-18T09:47:59;37.10;;;22.67;;
29788;SDS011;64899;42.660;23.268;2022-12-18T09:50:26;33.75;;;20.25;;
29788;SDS011;64899;42.660;23.268;2022-12-18T09:53:04;31.42;;;19.80;;
29788;SDS011;64899;42.660;23.268;2022-12-18T09:55:33;31.65;;;19.90;;
29788;SDS011;64899;42.660;23.268;2022-12-18T10:00:42;31.35;;;18.92;;
29788;SDS011;64899;42.660;23.268;2022-12-18T10:03:11;34.28;;;19.50;;
29788;SDS011;64899;42.660;23.268;2022-12-18T10:08:21;30.00;;;16.85;;
29788;SDS011;64899;42.660;23.268;2022-12-18T10:10:49;29.20;;;16.95;;
29788;SDS011;64899;42.660;23.268;2022-12-18T10:16:03;28.23;;;16.55;;
29788;SDS011;64899;42.660;23.268;2022-12-18T10:21:04;29.10;;;16.15;;
29788;SDS011;64899;42.660;23.268;2022-12-18T10:26:07;26.38;;;15.70;;
29788;SDS011;64899;42.660;23.268;2022-12-18T10:28:38;28.30;;;16.73;;
29788;SDS011;64899;42.660;23.268;2022-12-18T10:31:05;27.73;;;15.82;;
29788;SDS011;64899;42.660;23.268;2022-12-18T10:33:32;27.88;;;16.77;;
29788;SDS011;64899;42.660;23.268;2022-12-18T10:35:59;26.75;;;15.23;;
29788;SDS011;64899;42.660;23.268;2022-12-18T10:41:01;30.45;;;16.27;;
29788;SDS011;64899;42.660;23.268;2022-12-18T10:46:19;24.80;;;14.48;;
29788;SDS011;64899;42.660;23.268;2022-12-18T10:54:01;29.90;;;15.43;;
29788;SDS011;64899;42.660;23.268;2022-12-18T10:56:30;29.55;;;15.65;;
29788;SDS011;64899;42.660;23.268;2022-12-18T10:59:06;25.30;;;15.32;;
29788;SDS011;64899;42.660;23.268;2022-12-18T11:01:54;28.23;;;15.10;;
29788;SDS011;64899;42.660;23.268;2022-12-18T11:04:31;30.25;;;15.48;;
29788;SDS011;64899;42.660;23.268;2022-12-18T11:09:31;23.40;;;14.15;;
29788;SDS011;64899;42.660;23.268;2022-12-18T11:11:58;25.90;;;14.27;;
29788;SDS011;64899;42.660;23.268;2022-12-18T11:14:25;26.25;;;14.23;;
29788;SDS011;64899;42.660;23.268;2022-12-18T11:16:53;22.55;;;13.18;;
29788;SDS011;64899;42.660;23.268;2022-12-18T11:21:47;27.45;;;14.88;;
29788;SDS011;64899;42.660;23.268;2022-12-18T11:24:20;24.30;;;13.57;;
29788;SDS011;64899;42.660;23.268;2022-12-18T11:26:49;22.98;;;13.60;;
29788;SDS011;64899;42.660;23.268;2022-12-18T11:29:19;25.77;;;14.35;;
29788;SDS011;64899;42.660;23.268;2022-12-18T11:31:48;27.35;;;13.70;;
29788;SDS011;64899;42.660;23.268;2022-12-18T11:34:26;26.00;;;14.48;;
29788;SDS011;64899;42.660;23.268;2022-12-18T11:36:53;26.80;;;15.27;;
29788;SDS011;64899;42.660;23.268;2022-12-18T11:42:01;23.38;;;13.68;;
29788;SDS011;64899;42.660;23.268;2022-12-18T11:44:42;22.27;;;12.65;;
29788;SDS011;64899;42.660;23.268;2022-12-18T11:50:02;25.10;;;13.73;;
29788;SDS011;64899;42.660;23.268;2022-12-18T11:52:38;24.75;;;13.55;;
29788;SDS011;64899;42.660;23.268;2022-12-18T11:55:08;25.23;;;14.35;;
29788;SDS011;64899;42.660;23.268;2022-12-18T11:57:39;23.90;;;13.13;;
29788;SDS011;64899;42.660;23.268;2022-12-18T12:00:15;23.90;;;13.98;;
29788;SDS011;64899;42.660;23.268;2022-12-18T12:16:55;25.35;;;13.35;;
29788;SDS011;64899;42.660;23.268;2022-12-18T12:19:32;23.08;;;13.88;;
29788;SDS011;64899;42.660;23.268;2022-12-18T12:27:44;24.20;;;14.77;;
29788;SDS011;64899;42.660;23.268;2022-12-18T12:30:33;27.73;;;15.52;;
29788;SDS011;64899;42.660;23.268;2022-12-18T12:38:35;27.85;;;15.85;;
29788;SDS011;64899;42.660;23.268;2022-12-18T12:41:17;25.80;;;15.65;;
29788;SDS011;64899;42.660;23.268;2022-12-18T12:44:04;31.42;;;16.02;;
29788;SDS011;64899;42.660;23.268;2022-12-18T12:46:32;28.30;;;16.00;;
29788;SDS011;64899;42.660;23.268;2022-12-18T12:49:01;28.70;;;16.42;;
29788;SDS011;64899;42.660;23.268;2022-12-18T12:51:34;28.02;;;16.23;;
29788;SDS011;64899;42.660;23.268;2022-12-18T12:54:01;31.38;;;17.10;;
29788;SDS011;64899;42.660;23.268;2022-12-18T12:57:02;31.10;;;16.67;;
29788;SDS011;64899;42.660;23.268;2022-12-18T13:04:49;28.25;;;16.23;;
29788;SDS011;64899;42.660;23.268;2022-12-18T13:07:28;29.58;;;17.10;;
29788;SDS011;64899;42.660;23.268;2022-12-18T13:12:53;28.88;;;15.82;;
29788;SDS011;64899;42.660;23.268;2022-12-18T13:15:33;31.60;;;16.92;;
29788;SDS011;64899;42.660;23.268;2022-12-18T13:20:34;32.20;;;16.58;;
29788;SDS011;64899;42.660;23.268;2022-12-18T13:23:01;35.42;;;19.20;;
29788;SDS011;64899;42.660;23.268;2022-12-18T13:25:44;32.55;;;19.00;;
29788;SDS011;64899;42.660;23.268;2022-12-18T13:28:56;33.35;;;17.35;;
29788;SDS011;64899;42.660;23.268;2022-12-18T13:30:58;28.45;;;16.83;;
29788;SDS011;64899;42.660;23.268;2022-12-18T13:41:38;28.33;;;16.70;;
29788;SDS011;64899;42.660;23.268;2022-12-18T13:44:11;29.80;;;15.68;;
29788;SDS011;64899;42.660;23.268;2022-12-18T13:46:44;28.08;;;15.88;;
29788;SDS011;64899;42.660;23.268;2022-12-18T13:51:39;33.83;;;17.52;;
29788;SDS011;64899;42.660;23.268;2022-12-18T13:54:17;27.15;;;16.10;;
29788;SDS011;64899;42.660;23.268;2022-12-18T13:56:54;27.02;;;16.10;;
29788;SDS011;64899;42.660;23.268;2022-12-18T13:59:26;35.40;;;18.92;;
29788;SDS011;64899;42.660;23.268;2022-12-18T14:02:12;41.35;;;22.13;;
29788;SDS011;64899;42.660;23.268;2022-12-18T14:04:39;31.67;;;17.67;;
29788;SDS011;64899;42.660;23.268;2022-12-18T14:07:10;29.73;;;16.75;;
29788;SDS011;64899;42.660;23.268;2022-12-18T14:09:42;26.42;;;15.10;;
29788;SDS011;64899;42.660;23.268;2022-12-18T14:15:38;29.35;;;16.33;;
29788;SDS011;64899;42.660;23.268;2022-12-18T14:20:41;27.45;;;15.80;;
29788;SDS011;64899;42.660;23.268;2022-12-18T14:26:01;30.83;;;15.73;;
29788;SDS011;64899;42.660;23.268;2022-12-18T14:28:28;27.92;;;15.88;;
29788;SDS011;64899;42.660;23.268;2022-12-18T14:30:54;25.52;;;15.75;;
29788;SDS011;64899;42.660;23.268;2022-12-18T14:33:24;26.67;;;15.35;;
29788;SDS011;64899;42.660;23.268;2022-12-18T14:35:54;30.45;;;16.50;;
29788;SDS011;64899;42.660;23.268;2022-12-18T14:38:29;28.92;;;15.52;;
29788;SDS011;64899;42.660;23.268;2022-12-18T14:40:58;29.77;;;16.40;;
29788;SDS011;64899;42.660;23.268;2022-12-18T14:43:43;25.35;;;15.25;;
29788;SDS011;64899;42.660;23.268;2022-12-18T14:46:51;26.80;;;16.15;;
29788;SDS011;64899;42.660;23.268;2022-12-18T14:49:18;28.90;;;15.50;;
29788;SDS011;64899;42.660;23.268;2022-12-18T14:52:06;29.60;;;16.35;;
29788;SDS011;64899;42.660;23.268;2022-12-18T14:54:38;29.05;;;15.73;;
29788;SDS011;64899;42.660;23.268;2022-12-18T14:57:21;30.98;;;16.63;;
29788;SDS011;64899;42.660;23.268;2022-12-18T14:59:48;33.67;;;17.83;;
29788;SDS011;64899;42.660;23.268;2022-12-18T15:15:46;28.35;;;15.57;;
29788;SDS011;64899;42.660;23.268;2022-12-18T15:18:15;27.00;;;15.15;;
29788;SDS011;64899;42.660;23.268;2022-12-18T15:20:49;25.17;;;14.32;;
29788;SDS011;64899;42.660;23.268;2022-12-18T15:23:32;22.90;;;13.07;;
29788;SDS011;64899;42.660;23.268;2022-12-18T15:28:38;22.33;;;13.15;;
29788;SDS011;64899;42.660;23.268;2022-12-18T15:33:32;24.42;;;13.88;;
29788;SDS011;64899;42.660;23.268;2022-12-18T15:36:08;23.33;;;14.30;;
29788;SDS011;64899;42.660;23.268;2022-12-18T15:38:36;25.92;;;13.85;;
29788;SDS011;64899;42.660;23.268;2022-12-18T15:41:01;25.45;;;13.38;;
29788;SDS011;64899;42.660;23.268;2022-12-18T15:43:27;23.27;;;13.48;;
29788;SDS011;64899;42.660;23.268;2022-12-18T15:45:59;27.38;;;15.35;;
29788;SDS011;64899;42.660;23.268;2022-12-18T15:50:59;24.50;;;13.80;;
29788;SDS011;64899;42.660;23.268;2022-12-18T15:53:25;23.75;;;12.52;;
29788;SDS011;64899;42.660;23.268;2022-12-18T15:55:55;21.83;;;12.07;;
29788;SDS011;64899;42.660;23.268;2022-12-18T15:58:40;23.05;;;13.93;;
29788;SDS011;64899;42.660;23.268;2022-12-18T16:01:05;24.52;;;13.82;;
29788;SDS011;64899;42.660;23.268;2022-12-18T16:03:33;23.15;;;13.45;;
29788;SDS011;64899;42.660;23.268;2022-12-18T16:05:59;26.70;;;13.70;;
29788;SDS011;64899;42.660;23.268;2022-12-18T16:08:27;23.10;;;13.13;;
29788;SDS011;64899;42.660;23.268;2022-12-18T16:10:54;25.83;;;14.88;;
29788;SDS011;64899;42.660;23.268;2022-12-18T16:13:20;31.67;;;16.27;;
29788;SDS011;64899;42.660;23.268;2022-12-18T16:15:45;25.25;;;15.10;;
29788;SDS011;64899;42.660;23.268;2022-12-18T16:18:11;25.67;;;15.52;;
29788;SDS011;64899;42.660;23.268;2022-12-18T16:20:36;28.25;;;15.15;;
29788;SDS011;64899;42.660;23.268;2022-12-18T16:23:03;24.30;;;13.32;;
29788;SDS011;64899;42.660;23.268;2022-12-18T16:25:28;25.67;;;13.20;;
29788;SDS011;64899;42.660;23.268;2022-12-18T16:27:54;24.77;;;14.30;;
29788;SDS011;64899;42.660;23.268;2022-12-18T16:30:25;26.13;;;14.32;;
29788;SDS011;64899;42.660;23.268;2022-12-18T16:32:53;26.63;;;14.23;;
29788;SDS011;64899;42.660;23.268;2022-12-18T16:35:19;25.88;;;14.30;;
29788;SDS011;64899;42.660;23.268;2022-12-18T16:37:44;28.67;;;16.00;;
29788;SDS011;64899;42.660;23.268;2022-12-18T16:40:11;24.65;;;14.48;;
29788;SDS011;64899;42.660;23.268;2022-12-18T16:42:38;26.17;;;14.55;;
29788;SDS011;64899;42.660;23.268;2022-12-18T16:45:06;23.55;;;13.93;;
29788;SDS011;64899;42.660;23.268;2022-12-18T16:47:33;30.15;;;15.80;;
29788;SDS011;64899;42.660;23.268;2022-12-18T16:49:58;29.23;;;15.63;;
29788;SDS011;64899;42.660;23.268;2022-12-18T16:52:26;28.25;;;15.82;;